Time;durP1;ratioP1;P1;durP2;ratioP2;P2;SDS_P1;SDS_P2;PMS_P1;PMS_P2;Temp;Humidity;BMP_temperature;BMP_pressure;BME280_temperature;BME280_humidity;BME280_pressure;Samples;Min_cycle;Max_cycle;Signal;HPM_P1;HPM_P2
2020/12/24 00:01:36;;;;;;;106.72;54.30;;;;;;;7.26;100.00;101444.88;4975197;28;20022;-73
2020/12/24 00:04:21;;;;;;;107.93;55.03;;;;;;;7.47;100.00;101446.78;4976051;28;20026;-73
2020/12/24 00:07:07;;;;;;;111.25;59.03;;;;;;;7.79;100.00;101448.69;4976044;28;20085;-73
2020/12/24 00:09:53;;;;;;;99.80;52.65;;;;;;;7.48;100.00;101456.34;4975301;28;20423;-73
2020/12/24 00:12:39;;;;;;;103.90;55.05;;;;;;;7.83;100.00;101449.56;4975004;28;20034;-72
2020/12/24 00:15:25;;;;;;;101.10;55.33;;;;;;;7.69;100.00;101451.25;4975014;28;20023;-73
2020/12/24 00:18:11;;;;;;;105.93;56.63;;;;;;;7.51;100.00;101457.22;4974884;28;20110;-72
2020/12/24 00:20:57;;;;;;;115.15;58.70;;;;;;;7.43;100.00;101458.06;4975761;28;20029;-73
2020/12/24 00:23:42;;;;;;;105.60;56.70;;;;;;;7.67;100.00;101450.38;4975061;28;20550;-73
2020/12/24 00:26:28;;;;;;;105.82;57.15;;;;;;;7.44;100.00;101441.53;4974970;28;20086;-72
2020/12/24 00:29:14;;;;;;;106.07;56.85;;;;;;;7.59;100.00;101449.47;4975092;28;20110;-72
2020/12/24 00:32:00;;;;;;;100.07;54.75;;;;;;;7.52;100.00;101450.28;4975149;28;20487;-73
2020/12/24 00:34:46;;;;;;;98.38;52.55;;;;;;;7.58;100.00;101447.69;4974349;28;20038;-73
2020/12/24 00:37:32;;;;;;;99.90;53.92;;;;;;;7.45;100.00;101453.72;4975646;28;20057;-73
2020/12/24 00:40:17;;;;;;;100.70;55.55;;;;;;;7.66;100.00;101452.13;4974983;28;20031;-73
2020/12/24 00:43:03;;;;;;;103.53;56.97;;;;;;;7.97;100.00;101447.94;4974978;28;20031;-73
2020/12/24 00:45:49;;;;;;;106.80;56.20;;;;;;;7.92;100.00;101450.50;4974856;28;20026;-73
2020/12/24 00:48:35;;;;;;;102.25;54.90;;;;;;;7.93;100.00;101441.84;4974823;28;20097;-73
2020/12/24 00:51:20;;;;;;;109.80;56.47;;;;;;;7.86;100.00;101447.88;4974771;28;20129;-72
2020/12/24 00:54:06;;;;;;;103.35;55.53;;;;;;;8.24;100.00;101440.25;4975245;28;20105;-73
2020/12/24 00:56:52;;;;;;;94.10;53.20;;;;;;;8.24;100.00;101445.47;4974840;28;20023;-73
2020/12/24 00:59:37;;;;;;;102.63;55.35;;;;;;;8.26;100.00;101441.13;4974046;28;20027;-73
2020/12/24 01:02:23;;;;;;;96.30;53.17;;;;;;;8.22;100.00;101444.56;4973953;28;20105;-73
2020/12/24 01:05:09;;;;;;;106.15;56.60;;;;;;;8.39;100.00;101441.16;4974194;28;20073;-73
2020/12/24 01:07:55;;;;;;;98.45;54.53;;;;;;;8.31;100.00;101440.25;4977420;28;20034;-74
2020/12/24 01:10:41;;;;;;;91.18;51.17;;;;;;;8.11;100.00;101427.97;4979029;28;20031;-73
2020/12/24 01:13:27;;;;;;;94.50;51.63;;;;;;;7.86;100.00;101431.34;4977465;28;20041;-73
2020/12/24 01:16:12;;;;;;;104.85;53.88;;;;;;;7.90;100.00;101425.28;4978451;28;20436;-73
2020/12/24 01:18:59;;;;;;;97.05;51.90;;;;;;;8.13;100.00;101427.13;4978050;28;20097;-73
2020/12/24 01:21:47;;;;;;;102.43;53.92;;;;;;;8.43;100.00;101415.91;4977961;28;20466;-73
2020/12/24 01:24:32;;;;;;;100.38;54.03;;;;;;;8.22;100.00;101421.09;4977284;28;20031;-74
2020/12/24 01:27:18;;;;;;;97.13;53.40;;;;;;;8.26;100.00;101410.66;4978431;28;20526;-73
2020/12/24 01:30:04;;;;;;;88.10;50.45;;;;;;;8.36;100.00;101404.59;4977505;28;20456;-73
2020/12/24 01:32:50;;;;;;;100.07;53.13;;;;;;;8.36;100.00;101408.97;4977711;28;20050;-73
2020/12/24 01:35:36;;;;;;;93.25;50.97;;;;;;;7.89;100.00;101398.34;4977789;28;20415;-73
2020/12/24 01:38:22;;;;;;;102.22;55.28;;;;;;;7.56;100.00;101402.50;4977603;28;20023;-73
2020/12/24 01:41:07;;;;;;;109.25;57.42;;;;;;;8.05;100.00;101392.31;4977882;28;20030;-73
2020/12/24 01:43:54;;;;;;;97.97;54.58;;;;;;;8.06;100.00;101388.81;4977308;28;20030;-73
2020/12/24 01:46:39;;;;;;;91.70;51.60;;;;;;;8.24;100.00;101393.25;4977811;28;20038;-72
2020/12/24 01:49:25;;;;;;;95.88;53.08;;;;;;;8.07;100.00;101387.06;4977416;28;20030;-73
2020/12/24 01:52:36;;;;;;;103.10;54.30;;;;;;;8.16;100.00;101381.91;4977546;28;20022;-73
2020/12/24 01:55:22;;;;;;;92.88;52.67;;;;;;;8.28;100.00;101372.38;4977528;28;20029;-73
2020/12/24 01:58:08;;;;;;;96.55;53.10;;;;;;;8.24;100.00;101375.84;4977623;28;20034;-73
2020/12/24 02:00:54;;;;;;;99.45;52.85;;;;;;;8.22;100.00;101368.88;4977187;28;20033;-73
2020/12/24 02:03:39;;;;;;;88.57;52.38;;;;;;;8.40;100.00;101377.63;4977755;28;20027;-73
2020/12/24 02:06:25;;;;;;;96.03;52.22;;;;;;;8.03;100.00;101367.03;4977302;28;20088;-73
2020/12/24 02:09:11;;;;;;;100.18;53.17;;;;;;;7.62;100.00;101364.28;4977157;28;20122;-74
2020/12/24 02:11:58;;;;;;;96.18;54.58;;;;;;;7.93;100.00;101358.34;4976343;28;20054;-73
2020/12/24 02:14:45;;;;;;;106.25;58.10;;;;;;;7.96;100.00;101358.34;4977187;28;20082;-74
2020/12/24 02:17:30;;;;;;;103.88;58.78;;;;;;;7.74;100.00;101360.84;4976735;28;20085;-74
2020/12/24 02:20:17;;;;;;;109.47;57.75;;;;;;;8.05;100.00;101360.09;4976870;28;20030;-74
2020/12/24 02:23:02;;;;;;;98.20;54.65;;;;;;;8.22;100.00;101348.00;4977219;28;20066;-73
2020/12/24 02:25:48;;;;;;;99.00;53.83;;;;;;;8.40;100.00;101351.50;4975880;28;20411;-73
2020/12/24 02:28:34;;;;;;;85.47;50.90;;;;;;;8.43;100.00;101345.41;4976891;28;20035;-74
2020/12/24 02:31:20;;;;;;;78.95;45.70;;;;;;;8.35;100.00;101357.59;4975765;28;20046;-73
2020/12/24 02:34:05;;;;;;;83.32;47.20;;;;;;;8.51;100.00;101349.78;4976855;28;20018;-73
2020/12/24 02:36:51;;;;;;;87.72;50.70;;;;;;;8.32;100.00;101347.16;4976591;28;20046;-73
2020/12/24 02:39:37;;;;;;;77.35;45.75;;;;;;;8.48;100.00;101341.94;4975932;28;20426;-73
2020/12/24 02:42:24;;;;;;;70.15;41.83;;;;;;;8.20;100.00;101340.13;4976117;28;20460;-74
2020/12/24 02:45:09;;;;;;;70.78;41.80;;;;;;;8.30;100.00;101346.28;4975824;28;20395;-74
2020/12/24 02:47:55;;;;;;;63.55;38.80;;;;;;;8.39;100.00;101354.13;4976287;28;20137;-73
2020/12/24 02:50:41;;;;;;;55.00;35.83;;;;;;;8.50;100.00;101350.66;4977059;28;20030;-73
2020/12/24 02:53:27;;;;;;;56.35;34.20;;;;;;;8.55;100.00;101350.66;4976656;28;20023;-73
2020/12/24 02:56:13;;;;;;;52.55;32.53;;;;;;;8.35;100.00;101362.81;4976689;28;20023;-73
2020/12/24 02:58:58;;;;;;;49.03;31.73;;;;;;;8.43;100.00;101353.25;4976198;28;20034;-73
2020/12/24 03:01:44;;;;;;;48.17;29.85;;;;;;;8.18;100.00;101351.44;4975997;28;20041;-73
2020/12/24 03:04:31;;;;;;;48.05;30.38;;;;;;;8.19;100.00;101356.66;4976158;28;20031;-72
2020/12/24 03:07:16;;;;;;;45.83;29.35;;;;;;;8.30;100.00;101362.81;4975741;28;20419;-73
2020/12/24 03:10:03;;;;;;;40.30;26.17;;;;;;;8.48;100.00;101359.38;4975675;28;20030;-73
2020/12/24 03:12:49;;;;;;;39.60;25.95;;;;;;;8.49;100.00;101361.09;4975844;28;20420;-72
2020/12/24 03:15:34;;;;;;;38.28;25.17;;;;;;;8.51;100.00;101361.97;4975447;28;20027;-73
2020/12/24 03:18:20;;;;;;;35.85;23.15;;;;;;;8.60;100.00;101362.84;4975701;28;20022;-72
2020/12/24 03:21:06;;;;;;;35.63;23.55;;;;;;;8.59;100.00;101362.84;4976476;28;20101;-73
2020/12/24 03:23:52;;;;;;;33.72;23.05;;;;;;;8.58;100.00;101366.34;4975674;28;20023;-73
2020/12/24 03:26:37;;;;;;;39.78;23.42;;;;;;;8.49;100.00;101367.19;4975810;28;20031;-73
2020/12/24 03:29:23;;;;;;;35.22;24.13;;;;;;;8.68;100.00;101362.88;4975459;28;20097;-73
2020/12/24 03:32:09;;;;;;;34.92;22.95;;;;;;;8.64;100.00;101361.97;4974913;28;20046;-73
2020/12/24 03:34:55;;;;;;;34.70;23.98;;;;;;;8.63;100.00;101352.41;4975347;28;20023;-73
2020/12/24 03:37:40;;;;;;;38.53;26.02;;;;;;;8.70;100.00;101371.56;4976250;28;20019;-73
2020/12/24 03:40:26;;;;;;;33.83;23.58;;;;;;;8.63;100.00;101380.25;4976070;28;20031;-73
2020/12/24 03:43:12;;;;;;;37.55;23.27;;;;;;;8.73;100.00;101376.78;4977517;28;20019;-73
2020/12/24 03:45:58;;;;;;;34.65;23.92;;;;;;;8.87;100.00;101378.53;4976730;28;20050;-74
2020/12/24 03:48:43;;;;;;;35.95;24.65;;;;;;;8.96;100.00;101375.91;4974137;28;20026;-74
2020/12/24 03:51:29;;;;;;;31.13;21.77;;;;;;;8.97;100.00;101382.03;4976462;28;20026;-74
2020/12/24 03:54:15;;;;;;;33.03;22.70;;;;;;;8.90;100.00;101378.53;4975245;28;20050;-72
2020/12/24 03:57:00;;;;;;;33.38;22.35;;;;;;;8.91;100.00;101382.00;4975425;28;20030;-72
2020/12/24 03:59:46;;;;;;;35.28;24.48;;;;;;;8.71;100.00;101368.06;4975469;28;20359;-73
2020/12/24 04:02:32;;;;;;;36.17;24.70;;;;;;;8.87;100.00;101375.94;4975163;28;20022;-73
2020/12/24 04:05:18;;;;;;;33.45;23.75;;;;;;;8.95;100.00;101382.03;4974699;28;20459;-73
2020/12/24 04:08:05;;;;;;;37.83;24.15;;;;;;;8.78;100.00;101381.16;4975628;28;20030;-74
2020/12/24 04:10:51;;;;;;;37.17;24.33;;;;;;;8.93;100.00;101377.66;4974599;28;20166;-74
2020/12/24 04:13:37;;;;;;;40.35;25.25;;;;;;;8.73;100.00;101369.81;4973842;28;20102;-73
2020/12/24 04:16:24;;;;;;;36.25;24.70;;;;;;;8.68;100.00;101373.31;4975285;28;20058;-73
2020/12/24 04:19:09;;;;;;;38.42;25.55;;;;;;;8.70;100.00;101382.91;4975323;28;20054;-73
2020/12/24 04:21:55;;;;;;;41.72;26.38;;;;;;;8.52;100.00;101374.19;4975278;28;20034;-73
2020/12/24 04:24:41;;;;;;;42.75;26.73;;;;;;;8.71;100.00;101368.97;4974971;28;20117;-73
2020/12/24 04:27:29;;;;;;;40.00;26.33;;;;;;;8.71;100.00;101374.19;4974431;28;20049;-73
2020/12/24 04:30:14;;;;;;;41.20;26.65;;;;;;;8.75;100.00;101364.59;4974713;28;20034;-73
2020/12/24 04:33:00;;;;;;;40.22;26.50;;;;;;;8.86;100.00;101371.59;4974231;28;20114;-72
2020/12/24 04:35:46;;;;;;;41.45;26.13;;;;;;;8.79;100.00;101368.94;4974229;28;20037;-73
2020/12/24 04:38:32;;;;;;;43.42;27.92;;;;;;;8.71;100.00;101358.50;4974115;28;20019;-74
2020/12/24 04:41:18;;;;;;;40.75;26.40;;;;;;;8.65;100.00;101368.94;4976377;28;20038;-73
2020/12/24 04:44:04;;;;;;;43.58;27.08;;;;;;;8.48;100.00;101359.38;4978548;28;20041;-73
2020/12/24 04:46:50;;;;;;;40.20;27.13;;;;;;;8.53;100.00;101358.47;4979215;28;20027;-74
2020/12/24 04:49:39;;;;;;;37.83;27.30;;;;;;;8.46;100.00;101363.72;4978402;28;20070;-73
2020/12/24 04:52:25;;;;;;;40.75;27.20;;;;;;;8.68;100.00;101371.56;4978669;28;20026;-73
2020/12/24 04:55:11;;;;;;;38.88;26.33;;;;;;;8.89;100.00;101366.31;4977818;28;20125;-73
2020/12/24 04:57:59;;;;;;;44.20;30.17;;;;;;;8.69;100.00;101373.28;4978494;28;20031;-72
2020/12/24 05:00:45;;;;;;;48.25;32.22;;;;;;;8.69;100.00;101369.84;4978565;28;20038;-73
2020/12/24 05:03:31;;;;;;;50.55;32.83;;;;;;;8.74;100.00;101371.59;4977651;28;20422;-72
2020/12/24 05:06:17;;;;;;;48.25;32.35;;;;;;;8.99;100.00;101364.59;4978154;28;20407;-74
2020/12/24 05:09:03;;;;;;;44.33;30.95;;;;;;;8.68;100.00;101365.50;4978475;28;20109;-72
2020/12/24 05:11:50;;;;;;;45.15;31.65;;;;;;;8.82;100.00;101369.84;4977623;28;20023;-72
2020/12/24 05:14:38;;;;;;;47.13;32.63;;;;;;;8.96;100.00;101372.44;4977494;28;20110;-73
2020/12/24 05:17:25;;;;;;;41.55;29.35;;;;;;;9.06;100.00;101368.94;4977528;28;20125;-73
2020/12/24 05:20:11;;;;;;;43.38;29.25;;;;;;;9.13;100.00;101371.53;4978483;28;20475;-72
2020/12/24 05:23:17;;;;;;;38.08;26.83;;;;;;;9.14;100.00;101365.47;4978106;28;20038;-73
2020/12/24 05:26:19;;;;;;;41.78;27.55;;;;;;;9.14;100.00;101375.03;4977738;28;20456;-72
2020/12/24 05:29:11;;;;;;;44.70;28.08;;;;;;;9.07;100.00;101371.56;4978174;28;20081;-72
2020/12/24 05:31:57;;;;;;;35.88;25.90;;;;;;;9.24;100.00;101371.50;4977968;28;20059;-74
2020/12/24 05:34:43;;;;;;;38.10;26.20;;;;;;;9.31;100.00;101363.69;4978347;28;20023;-73
2020/12/24 05:37:29;;;;;;;34.97;24.23;;;;;;;9.47;100.00;101359.28;4978255;28;20045;-73
2020/12/24 05:40:25;;;;;;;36.80;24.50;;;;;;;9.18;100.00;101359.34;4978423;28;20467;-73
2020/12/24 05:43:13;;;;;;;32.05;22.85;;;;;;;9.23;100.00;101359.31;4977136;28;20038;-73
2020/12/24 05:46:04;;;;;;;29.38;21.52;;;;;;;9.49;100.00;101362.78;4978280;28;20026;-73
2020/12/24 05:48:50;;;;;;;33.45;22.95;;;;;;;9.45;100.00;101359.28;4977474;28;20026;-72
2020/12/24 05:51:37;;;;;;;31.08;21.77;;;;;;;9.67;100.00;101352.22;4977503;28;20039;-73
2020/12/24 05:54:25;;;;;;;30.08;21.08;;;;;;;9.57;100.00;101353.16;4975818;28;20026;-73
2020/12/24 05:57:11;;;;;;;29.25;20.40;;;;;;;9.73;100.00;101349.59;4976956;28;20026;-73
2020/12/24 05:59:57;;;;;;;28.15;20.48;;;;;;;9.66;100.00;101359.19;4977252;28;20093;-73
2020/12/24 06:03:03;;;;;;;27.17;19.85;;;;;;;9.63;100.00;101358.34;4977157;28;20022;-73
2020/12/24 06:05:56;;;;;;;31.92;20.00;;;;;;;9.72;100.00;101353.06;4978299;28;20035;-74
2020/12/24 06:08:46;;;;;;;27.75;19.67;;;;;;;9.55;100.00;101345.31;4977290;28;20026;-72
2020/12/24 06:11:44;;;;;;;28.20;19.35;;;;;;;9.21;100.00;101351.47;4977336;28;20031;-72
2020/12/24 06:14:32;;;;;;;27.52;19.08;;;;;;;9.18;100.00;101348.91;4976960;28;20014;-72
2020/12/24 06:17:19;;;;;;;28.70;20.20;;;;;;;9.43;100.00;101350.56;4977150;28;20058;-73
2020/12/24 06:20:05;;;;;;;30.77;20.17;;;;;;;9.37;100.00;101336.66;4976856;28;20030;-73
2020/12/24 06:22:51;;;;;;;31.23;20.95;;;;;;;9.55;100.00;101339.19;4976865;28;20121;-73
2020/12/24 06:25:37;;;;;;;28.70;20.65;;;;;;;9.40;100.00;101336.63;4976712;28;20042;-73
2020/12/24 06:28:23;;;;;;;29.38;21.33;;;;;;;9.29;100.00;101339.25;4977018;28;20038;-73
2020/12/24 06:31:11;;;;;;;32.30;22.40;;;;;;;9.20;100.00;101325.34;4976738;28;20062;-71
2020/12/24 06:33:57;;;;;;;33.90;22.83;;;;;;;9.37;100.00;101326.19;4976065;28;20019;-72
2020/12/24 06:36:42;;;;;;;35.58;24.88;;;;;;;9.13;100.00;101331.47;4976035;28;20138;-74
2020/12/24 06:39:41;;;;;;;36.45;24.75;;;;;;;9.08;100.00;101335.81;4977100;28;20019;-74
2020/12/24 06:42:38;;;;;;;39.92;25.75;;;;;;;9.07;100.00;101334.09;4975497;28;20035;-72
2020/12/24 06:45:29;;;;;;;38.78;25.92;;;;;;;8.77;100.00;101337.59;4976563;28;20054;-73
2020/12/24 06:48:16;;;;;;;35.90;24.15;;;;;;;9.18;100.00;101330.59;4977072;28;20031;-72
2020/12/24 06:51:02;;;;;;;32.40;23.58;;;;;;;9.26;100.00;101322.72;4976005;28;20420;-74
2020/12/24 06:53:49;;;;;;;33.80;23.27;;;;;;;8.87;100.00;101323.66;4976997;28;20046;-73
2020/12/24 06:56:34;;;;;;;37.58;25.70;;;;;;;9.13;100.00;101321.03;4976386;28;20038;-73
2020/12/24 06:59:21;;;;;;;39.65;26.80;;;;;;;9.65;100.00;101313.00;4975630;28;20031;-74
2020/12/24 07:02:07;;;;;;;35.78;25.25;;;;;;;9.66;100.00;101306.88;4975957;28;20031;-74
2020/12/24 07:04:53;;;;;;;40.30;25.55;;;;;;;9.68;100.00;101305.13;4976102;28;20476;-72
2020/12/24 07:07:46;;;;;;;37.65;24.52;;;;;;;9.95;100.00;101310.25;4976089;28;20030;-73
2020/12/24 07:10:43;;;;;;;36.63;25.15;;;;;;;10.18;100.00;101316.22;4975051;28;20031;-73
2020/12/24 07:13:36;;;;;;;42.42;27.73;;;;;;;10.43;100.00;101321.28;4975987;28;20072;-74
2020/12/24 07:16:48;;;;;;;40.05;27.40;;;;;;;10.52;100.00;101316.00;4976472;28;20023;-72
2020/12/24 07:19:55;;;;;;;46.95;28.85;;;;;;;10.55;100.00;101310.72;4975355;28;20031;-73
2020/12/24 07:22:43;;;;;;;41.95;27.95;;;;;;;10.39;100.00;101309.09;4976014;28;20130;-74
2020/12/24 07:25:34;;;;;;;36.25;25.50;;;;;;;10.69;100.00;101314.97;4975357;28;20114;-73
2020/12/24 07:28:20;;;;;;;38.03;26.52;;;;;;;11.14;100.00;101301.44;4975474;28;20031;-74
2020/12/24 07:31:08;;;;;;;34.05;23.80;;;;;;;10.80;100.00;101313.13;4975886;28;20117;-72
2020/12/24 07:33:54;;;;;;;33.25;22.23;;;;;;;11.04;100.00;101315.50;4976317;28;20034;-73
2020/12/24 07:36:44;;;;;;;29.65;20.67;;;;;;;11.11;100.00;101311.06;4975528;28;20349;-73
2020/12/24 07:39:30;;;;;;;30.23;21.17;;;;;;;11.32;100.00;101316.09;4975933;28;20023;-72
2020/12/24 07:42:22;;;;;;;27.70;19.92;;;;;;;11.69;100.00;101318.31;4975556;28;20026;-73
2020/12/24 07:45:09;;;;;;;28.52;20.05;;;;;;;11.50;100.00;101316.78;4975966;28;20062;-72
2020/12/24 07:47:55;;;;;;;33.38;21.85;;;;;;;11.36;100.00;101323.03;4975826;28;20034;-72
2020/12/24 07:50:41;;;;;;;30.35;21.13;;;;;;;11.33;100.00;101323.09;4976084;28;20026;-73
2020/12/24 07:53:29;;;;;;;34.97;22.83;;;;;;;11.34;100.00;101327.44;4977854;28;20057;-73
2020/12/24 07:56:15;;;;;;;30.88;23.10;;;;;;;11.79;100.00;101326.94;4976781;28;20030;-73
2020/12/24 07:59:06;;;;;;;36.38;25.33;;;;;;;12.14;100.00;101322.09;4976339;28;20034;-73
2020/12/24 08:01:51;;;;;;;35.42;23.67;;;;;;;12.02;100.00;101328.34;4975513;28;20023;-73
2020/12/24 08:04:37;;;;;;;31.10;21.90;;;;;;;11.87;100.00;101331.22;4976354;28;20049;-74
2020/12/24 08:07:23;;;;;;;30.63;22.23;;;;;;;11.87;100.00;101339.09;4975904;28;20027;-74
2020/12/24 08:10:10;;;;;;;33.83;22.83;;;;;;;11.95;100.00;101342.50;4975163;28;20022;-72
2020/12/24 08:13:06;;;;;;;31.48;22.52;;;;;;;12.48;100.00;101350.47;4975094;28;20138;-74
2020/12/24 08:15:55;;;;;;;30.77;20.38;;;;;;;12.75;100.00;101350.06;4975458;28;20093;-74
2020/12/24 08:18:47;;;;;;;30.13;20.52;;;;;;;12.96;100.00;101349.69;4979543;28;20066;-74
2020/12/24 08:21:45;;;;;;;34.85;23.05;;;;;;;12.33;100.00;101360.31;4978988;28;20108;-77
2020/12/24 08:24:33;;;;;;;30.67;20.48;;;;;;;12.46;100.00;101361.91;4978801;28;20038;-74
2020/12/24 08:27:20;;;;;;;31.88;20.23;;;;;;;12.27;100.00;101366.56;4978997;28;20470;-75
2020/12/24 08:30:06;;;;;;;32.05;22.38;;;;;;;12.24;100.00;101365.72;4978301;28;20035;-75
2020/12/24 08:32:52;;;;;;;31.23;21.50;;;;;;;12.41;100.00;101369.84;4979178;28;20041;-73
2020/12/24 08:35:38;;;;;;;32.85;22.98;;;;;;;12.26;100.00;101363.94;4978868;28;20062;-73
2020/12/24 08:38:24;;;;;;;39.45;27.33;;;;;;;12.01;100.00;101363.41;4978566;28;20030;-74
2020/12/24 08:41:43;;;;;;;45.20;28.48;;;;;;;12.11;100.00;101356.28;4978990;28;20105;-73
2020/12/24 08:44:29;;;;;;;41.85;28.38;;;;;;;12.38;100.00;101342.75;4977802;28;20070;-75
2020/12/24 08:47:15;;;;;;;43.65;28.08;;;;;;;12.50;100.00;101343.41;4977939;28;20031;-75
2020/12/24 08:50:01;;;;;;;46.70;31.70;;;;;;;12.71;100.00;101340.47;4978891;28;20444;-74
2020/12/24 08:52:47;;;;;;;44.55;29.70;;;;;;;12.69;100.00;101331.72;4978939;28;20033;-74
2020/12/24 08:55:33;;;;;;;44.45;29.50;;;;;;;12.94;100.00;101333.06;4977681;28;20036;-74
2020/12/24 08:58:19;;;;;;;45.90;29.65;;;;;;;12.85;100.00;101327.06;4979055;28;20023;-72
2020/12/24 09:01:07;;;;;;;39.80;27.15;;;;;;;12.89;100.00;101334.00;4977590;28;20023;-73
2020/12/24 09:04:10;;;;;;;37.38;25.98;;;;;;;13.54;100.00;101315.28;4978683;28;20113;-72
2020/12/24 09:06:56;;;;;;;42.95;27.83;;;;;;;13.96;100.00;101327.56;4977989;28;20027;-74
2020/12/24 09:09:41;;;;;;;37.83;25.50;;;;;;;13.75;100.00;101318.34;4979111;28;20477;-73
2020/12/24 09:12:27;;;;;;;37.05;22.80;;;;;;;14.03;100.00;101308.09;4977479;28;20089;-73
2020/12/24 09:15:15;;;;;;;33.22;21.88;;;;;;;14.21;100.00;101313.84;4978673;28;20089;-72
2020/12/24 09:18:06;;;;;;;31.33;20.10;;;;;;;13.48;100.00;101297.88;4976632;28;20026;-74
2020/12/24 09:20:52;;;;;;;27.92;19.77;;;;;;;13.64;100.00;101294.03;4978015;28;20039;-73
2020/12/24 09:23:38;;;;;;;30.02;19.08;;;;;;;13.24;100.00;101279.94;4978466;28;20037;-74
2020/12/24 09:26:24;;;;;;;31.08;19.45;;;;;;;13.19;100.00;101279.13;4977469;28;20034;-73
2020/12/24 09:29:09;;;;;;;29.27;18.08;;;;;;;13.52;100.00;101277.59;4976883;28;20019;-72
2020/12/24 09:32:00;;;;;;;25.52;18.02;;;;;;;13.81;100.00;101277.84;4978393;28;20439;-74
2020/12/24 09:34:46;;;;;;;30.20;18.33;;;;;;;13.23;100.00;101272.91;4978119;28;20046;-73
2020/12/24 09:37:32;;;;;;;26.70;18.67;;;;;;;13.42;100.00;101279.53;4977451;28;20042;-75
2020/12/24 09:40:17;;;;;;;27.27;18.60;;;;;;;14.00;100.00;101272.16;4977925;28;20034;-74
2020/12/24 09:43:04;;;;;;;28.23;19.73;;;;;;;13.94;100.00;101267.00;4976643;28;20027;-72
2020/12/24 09:45:54;;;;;;;28.75;18.88;;;;;;;14.02;100.00;101265.06;4977357;28;20033;-73
2020/12/24 09:48:40;;;;;;;27.38;18.58;;;;;;;14.10;100.00;101259.59;4977180;28;20023;-74
2020/12/24 09:51:25;;;;;;;28.33;19.83;;;;;;;14.15;100.00;101265.66;4976325;28;20061;-73
2020/12/24 09:54:11;;;;;;;26.85;18.70;;;;;;;14.19;100.00;101259.41;4977293;28;20105;-74
2020/12/24 09:56:57;;;;;;;29.98;19.75;;;;;;;14.14;100.00;101251.59;4977119;28;20490;-74
2020/12/24 09:59:43;;;;;;;29.38;19.35;;;;;;;14.25;100.00;101241.72;4977234;28;20042;-73
2020/12/24 10:02:29;;;;;;;30.98;19.85;;;;;;;14.02;100.00;101240.47;4976792;28;20037;-73
2020/12/24 10:05:14;;;;;;;27.88;19.60;;;;;;;13.91;100.00;101239.88;4977527;28;20026;-74
2020/12/24 10:08:00;;;;;;;29.15;19.02;;;;;;;13.88;100.00;101232.91;4976800;28;20045;-73
2020/12/24 10:10:46;;;;;;;28.30;19.52;;;;;;;13.77;100.00;101228.78;4976346;28;20034;-74
2020/12/24 10:13:31;;;;;;;26.45;19.17;;;;;;;13.87;100.00;101223.25;4976829;28;20030;-73
2020/12/24 10:16:24;;;;;;;27.75;17.52;;;;;;;13.62;100.00;101219.44;4977084;28;20085;-72
2020/12/24 10:19:10;;;;;;;23.00;16.38;;;;;;;13.53;100.00;101211.75;4976225;28;20042;-74
2020/12/24 10:21:56;;;;;;;23.60;16.27;;;;;;;13.80;100.00;101212.91;4977171;28;20478;-73
2020/12/24 10:24:43;;;;;;;25.17;17.50;;;;;;;13.63;100.00;101202.75;4976604;28;20042;-74
2020/12/24 10:27:29;;;;;;;24.58;17.30;;;;;;;14.00;100.00;101206.28;4975984;28;20026;-74
2020/12/24 10:30:17;;;;;;;23.42;16.50;;;;;;;14.00;100.00;101195.75;4976797;28;20045;-77
2020/12/24 10:33:02;;;;;;;25.35;16.98;;;;;;;14.13;100.00;101197.19;4976584;28;20041;-74
2020/12/24 10:35:48;;;;;;;23.17;17.50;;;;;;;14.21;100.00;101192.63;4977501;28;20118;-73
2020/12/24 10:38:36;;;;;;;26.67;17.90;;;;;;;14.41;100.00;101192.13;4975961;28;20051;-74
2020/12/24 10:41:21;;;;;;;23.10;16.58;;;;;;;14.37;100.00;101182.56;4976521;28;20045;-73
2020/12/24 10:44:08;;;;;;;24.95;16.80;;;;;;;14.47;100.00;101173.53;4976183;28;20070;-73
2020/12/24 10:46:55;;;;;;;23.85;16.65;;;;;;;14.43;100.00;101169.22;4976795;28;20058;-73
2020/12/24 10:49:41;;;;;;;21.77;16.55;;;;;;;14.46;100.00;101169.13;4975607;28;20022;-73
2020/12/24 10:52:27;;;;;;;25.67;16.95;;;;;;;14.70;100.00;101169.34;4976380;28;20118;-73
2020/12/24 10:55:13;;;;;;;19.85;15.07;;;;;;;14.86;100.00;101161.03;4975567;28;20494;-73
2020/12/24 10:57:59;;;;;;;23.05;15.20;;;;;;;15.14;100.00;101165.47;4976735;28;20431;-73
2020/12/24 11:00:44;;;;;;;21.73;14.15;;;;;;;14.86;100.00;101163.66;4976001;28;20355;-73
2020/12/24 11:03:31;;;;;;;20.60;14.38;;;;;;;14.99;100.00;101157.13;4976083;28;20042;-74
2020/12/24 11:06:24;;;;;;;23.00;14.45;;;;;;;15.15;100.00;101147.88;4975368;28;20023;-73
2020/12/24 11:09:10;;;;;;;21.42;14.50;;;;;;;13.93;100.00;101144.09;4975861;28;20031;-74
2020/12/24 11:11:56;;;;;;;23.27;15.40;;;;;;;14.30;100.00;101137.03;4975579;28;20042;-73
2020/12/24 11:14:42;;;;;;;21.45;15.60;;;;;;;14.33;100.00;101144.00;4977622;28;20051;-74
2020/12/24 11:17:27;;;;;;;22.38;15.60;;;;;;;15.04;100.00;101134.97;4975416;28;20042;-74
2020/12/24 11:20:13;;;;;;;24.17;16.40;;;;;;;15.16;100.00;101139.03;4975645;28;20062;-73
2020/12/24 11:22:59;;;;;;;22.95;16.85;;;;;;;15.21;100.00;101131.81;4975477;28;20066;-74
2020/12/24 11:25:44;;;;;;;27.48;17.15;;;;;;;14.88;100.00;101135.44;4975309;28;20118;-73
2020/12/24 11:28:30;;;;;;;23.55;18.23;;;;;;;14.79;100.00;101134.81;4976750;28;20033;-73
2020/12/24 11:31:27;;;;;;;26.00;19.08;;;;;;;14.84;100.00;101116.22;4975524;28;20472;-74
2020/12/24 11:34:13;;;;;;;25.63;19.23;;;;;;;14.73;100.00;101126.19;4975671;28;20027;-72
2020/12/24 11:36:59;;;;;;;26.30;18.85;;;;;;;14.76;100.00;101118.22;4975515;28;20348;-74
2020/12/24 11:39:44;;;;;;;28.88;21.27;;;;;;;14.50;100.00;101116.28;4974816;28;20093;-73
2020/12/24 11:42:33;;;;;;;32.38;21.02;;;;;;;14.50;100.00;101102.22;4975315;28;20046;-74
2020/12/24 11:45:20;;;;;;;32.22;23.13;;;;;;;14.73;100.00;101099.81;4975245;28;20367;-73
2020/12/24 11:48:05;;;;;;;33.38;22.80;;;;;;;15.10;100.00;101094.34;4975281;28;20046;-74
2020/12/24 11:50:51;;;;;;;31.83;21.92;;;;;;;15.54;100.00;101099.13;4974483;28;20022;-73
2020/12/24 11:53:38;;;;;;;34.67;26.52;;;;;;;15.75;100.00;101093.19;4978505;28;20066;-74
2020/12/24 11:56:24;;;;;;;27.77;19.15;;;;;;;15.57;100.00;101085.84;4975367;28;20031;-74
2020/12/24 11:59:09;;;;;;;26.92;20.25;;;;;;;15.58;100.00;101085.81;4976027;28;20035;-72
2020/12/24 12:01:55;;;;;;;24.13;17.35;;;;;;;15.50;100.00;101089.59;4974209;28;20027;-73
2020/12/24 12:04:41;;;;;;;25.25;16.10;;;;;;;15.32;100.00;101077.81;4976583;28;20027;-73
2020/12/24 12:07:27;;;;;;;24.30;18.05;;;;;;;15.69;100.00;101083.69;4974247;28;20031;-73
2020/12/24 12:10:13;;;;;;;25.67;15.52;;;;;;;15.22;100.00;101073.72;4975230;28;20108;-75
2020/12/24 12:12:59;;;;;;;22.52;15.35;;;;;;;14.72;100.00;101071.72;4975151;28;20087;-73
2020/12/24 12:15:44;;;;;;;23.52;15.43;;;;;;;14.87;100.00;101062.50;4974994;28;20122;-74
2020/12/24 12:18:30;;;;;;;20.90;14.32;;;;;;;14.85;100.00;101062.53;4974813;28;20110;-74
2020/12/24 12:21:22;;;;;;;19.25;14.27;;;;;;;14.78;100.00;101059.22;4973755;28;20507;-74
2020/12/24 12:24:08;;;;;;;22.30;15.40;;;;;;;15.31;100.00;101062.03;4975049;28;20121;-73
2020/12/24 12:26:54;;;;;;;20.75;15.32;;;;;;;15.18;100.00;101060.69;4974932;28;20027;-74
2020/12/24 12:29:39;;;;;;;21.00;15.27;;;;;;;14.60;100.00;101057.09;4975197;28;20374;-74
2020/12/24 12:32:25;;;;;;;23.40;15.25;;;;;;;14.74;100.00;101054.06;4973979;28;20620;-73
2020/12/24 12:35:11;;;;;;;20.55;15.40;;;;;;;14.78;100.00;101060.97;4975993;28;20376;-73